Weather at Allison Ranch Airport [CLOSED]

Public forecast

Using degrees Fahrenheit for public forecast. Weather courtesy of forecast.io.

Closest aviation weather report (METAR) to Allison Ranch Airport

Closest report is Sonora Municipal Airport, 10.7 nm (19.7 km) WNW. Retrieved 2022/07/04 15:35 UTC (2 minutes ago):

KSOA 041535Z AUTO 15011KT 10SM CLR 28/18 A3011 RMK AO2

Closest aviation forecast (TAF) to Allison Ranch Airport

Closest forecast is Sonora Municipal Airport, 10.7 nm (19.7 km) WNW. Retrieved 2022/07/04 12:34 UTC (3 hours ago):

TAF KSOA 041132Z 0412/0512 16009KT P6SM SCT250 FM041500 17012G20KT P6SM FEW250